Welcome to Northern Hawkes Bay. New Zealand.
PWS Header
      nz Flag



Hit Counter


W3C Valid W3C Valid logo


    Wairoa

Select any of the Stations below to visit their websites.










Historic Data from Weather Underground
Select the location of interest below. Wairoa is the default. Please have patience, this Data is slow to load in.
Northern Hawkes Bay Historical Data
Daily Summary for December 9, 2017 Units:  Metric    English   Both
« Previous Day
Next Day »
Daily Weekly Monthly Yearly Custom
  High: Low: Average:
Temperature: 29.0 °C 15.2 °C 22.9 °C
Dew Point: 16.1 °C 13.0 °C 14.4 °C
Humidity: 93% 38% 61%
Wind Speed: 21.9km/h 0.0km/h 5.7km/h
Wind Gust: 33.1km/h - -
Wind- - SSW
Pressure: 1020.9 hPa 1016.1 hPa -
Precipitation: 0.0 mm    
Historical Graphs
 
 
Tabular Data for December 9, 2017
Time Temperature Dew Point Pressure Wind Wind Speed Wind Gust Humidity Rainfall Rate (Hourly) solar
00:11 19.1 °C 14.6 °C 1019.5 hPa Calm   6.1 km/h 75% 0.0 mm 0 W/m2
00:16 19.0 °C 14.5 °C 1019.5 hPa Calm   5.0 km/h 75% 0.0 mm 0 W/m2
00:21 18.9 °C 14.6 °C 1019.9 hPa NW 1.1 km/h 6.1 km/h 76% 0.0 mm 0 W/m2
00:31 18.7 °C 14.6 °C 1019.5 hPa NW 1.1 km/h 7.2 km/h 77% 0.0 mm 0 W/m2
00:36 18.6 °C 14.5 °C 1019.9 hPa NNW 1.1 km/h 5.0 km/h 77% 0.0 mm 0 W/m2
00:41 18.6 °C 14.7 °C 1019.5 hPa NNW 1.1 km/h 5.0 km/h 78% 0.0 mm 0 W/m2
00:46 18.6 °C 14.7 °C 1019.5 hPa NNW 1.1 km/h 7.2 km/h 78% 0.0 mm 0 W/m2
00:51 18.6 °C 14.7 °C 1019.5 hPa Calm   7.2 km/h 78% 0.0 mm 0 W/m2
00:56 18.6 °C 14.7 °C 1019.5 hPa Calm   7.2 km/h 78% 0.0 mm 0 W/m2
01:02 18.6 °C 14.7 °C 1019.5 hPa NNW 1.1 km/h 5.0 km/h 78% 0.0 mm 0 W/m2
01:12 18.5 °C 14.6 °C 1019.5 hPa Calm   5.0 km/h 78% 0.0 mm 0 W/m2
01:22 18.5 °C 14.6 °C 1019.5 hPa Calm   5.0 km/h 78% 0.0 mm 0 W/m2
01:37 18.5 °C 14.6 °C 1019.5 hPa Calm   7.2 km/h 78% 0.0 mm 0 W/m2
01:43 18.7 °C 14.6 °C 1019.2 hPa NNW 2.6 km/h 11.1 km/h 77% 0.0 mm 0 W/m2
01:48 18.7 °C 14.6 °C 1019.2 hPa Calm   5.0 km/h 77% 0.0 mm 0 W/m2
01:53 18.6 °C 14.5 °C 1019.2 hPa Calm   5.0 km/h 77% 0.0 mm 0 W/m2
01:58 18.7 °C 14.6 °C 1019.2 hPa Calm   8.7 km/h 77% 0.0 mm 0 W/m2
02:03 18.8 °C 14.7 °C 1019.2 hPa Calm   8.7 km/h 77% 0.0 mm 0 W/m2
02:09 18.7 °C 14.6 °C 1019.2 hPa North 2.6 km/h 7.2 km/h 77% 0.0 mm 0 W/m2
02:19 18.4 °C 14.5 °C 1019.2 hPa NNW 1.1 km/h 7.2 km/h 78% 0.0 mm 0 W/m2
02:24 18.3 °C 14.6 °C 1019.2 hPa NNW 1.1 km/h 7.2 km/h 79% 0.0 mm 0 W/m2
02:29 18.2 °C 14.5 °C 1019.2 hPa Calm   5.0 km/h 79% 0.0 mm 0 W/m2
02:34 17.9 °C 14.6 °C 1019.2 hPa Calm   3.5 km/h 81% 0.0 mm 0 W/m2
02:55 17.9 °C 14.6 °C 1019.2 hPa North 1.1 km/h 5.0 km/h 81% 0.0 mm 0 W/m2
03:00 17.9 °C 14.6 °C 1019.2 hPa Calm   5.0 km/h 81% 0.0 mm 0 W/m2
03:05 17.8 °C 14.5 °C 1019.2 hPa NNW 1.1 km/h 7.2 km/h 81% 0.0 mm 0 W/m2
03:10 17.8 °C 14.5 °C 1018.8 hPa NW 1.1 km/h 7.2 km/h 81% 0.0 mm 0 W/m2
03:15 17.7 °C 14.4 °C 1018.8 hPa NNW 1.1 km/h 7.2 km/h 81% 0.0 mm 0 W/m2
03:20 17.6 °C 14.5 °C 1019.2 hPa Calm   6.1 km/h 82% 0.0 mm 0 W/m2
03:25 17.5 °C 14.4 °C 1019.2 hPa North 2.6 km/h 6.1 km/h 82% 0.0 mm 0 W/m2
03:30 17.5 °C 14.4 °C 1019.2 hPa North 2.6 km/h 7.2 km/h 82% 0.0 mm 0 W/m2
03:40 17.4 °C 14.3 °C 1018.8 hPa North 1.1 km/h 7.2 km/h 82% 0.0 mm 0 W/m2
03:46 17.4 °C 14.3 °C 1018.8 hPa Calm   7.2 km/h 82% 0.0 mm 0 W/m2
03:51 17.3 °C 14.2 °C 1018.8 hPa Calm   7.2 km/h 82% 0.0 mm 0 W/m2
03:56 17.1 °C 14.0 °C 1018.8 hPa North 1.1 km/h 5.0 km/h 82% 0.0 mm 0 W/m2
04:01 17.1 °C 14.2 °C 1018.8 hPa Calm   5.0 km/h 83% 0.0 mm 0 W/m2
04:06 17.0 °C 14.1 °C 1018.8 hPa North 1.1 km/h 3.5 km/h 83% 0.0 mm 0 W/m2
04:11 16.8 °C 14.1 °C 1018.8 hPa Calm   3.5 km/h 84% 0.0 mm 0 W/m2
04:16 16.8 °C 14.3 °C 1018.8 hPa Calm   3.5 km/h 85% 0.0 mm 0 W/m2
04:21 16.7 °C 14.2 °C 1018.8 hPa Calm   3.5 km/h 85% 0.0 mm 0 W/m2
04:26 16.6 °C 14.1 °C 1018.8 hPa Calm   3.5 km/h 85% 0.0 mm 0 W/m2
04:36 16.4 °C 14.1 °C 1018.8 hPa Calm   2.6 km/h 86% 0.0 mm 0 W/m2
04:41 16.2 °C 13.9 °C 1018.8 hPa NW 1.1 km/h 2.6 km/h 86% 0.0 mm 0 W/m2
04:51 16.0 °C 13.8 °C 1018.8 hPa Calm   3.5 km/h 87% 0.0 mm 0 W/m2
04:56 15.8 °C 14.0 °C 1018.8 hPa Calm   3.5 km/h 89% 0.0 mm 0 W/m2
05:01 15.8 °C 14.0 °C 1019.2 hPa Calm   1.1 km/h 89% 0.0 mm 0 W/m2
05:06 15.6 °C 13.8 °C 1019.2 hPa Calm   1.1 km/h 89% 0.0 mm 0 W/m2
05:11 15.5 °C 13.9 °C 1019.2 hPa Calm   2.6 km/h 90% 0.0 mm 0 W/m2
05:16 15.5 °C 13.9 °C 1019.2 hPa Calm   2.6 km/h 90% 0.0 mm 0 W/m2
05:21 15.4 °C 13.9 °C 1019.5 hPa Calm   2.6 km/h 91% 0.0 mm 0 W/m2
05:26 15.3 °C 13.8 °C 1019.5 hPa Calm   2.6 km/h 91% 0.0 mm 0 W/m2
05:41 15.2 °C 14.1 °C 1019.5 hPa Calm   3.5 km/h 93% 0.0 mm 2 W/m2
05:46 15.2 °C 14.1 °C 1019.5 hPa Calm   3.5 km/h 93% 0.0 mm 4 W/m2
05:51 15.2 °C 14.1 °C 1019.5 hPa Calm   2.6 km/h 93% 0.0 mm 7 W/m2
06:01 15.2 °C 14.1 °C 1019.5 hPa Calm   1.1 km/h 93% 0.0 mm 16 W/m2
06:06 15.3 °C 14.2 °C 1019.9 hPa Calm   2.6 km/h 93% 0.0 mm 19 W/m2
06:11 15.3 °C 14.2 °C 1019.5 hPa Calm   3.5 km/h 93% 0.0 mm 23 W/m2
06:16 15.5 °C 14.4 °C 1019.9 hPa Calm   3.5 km/h 93% 0.0 mm 28 W/m2
06:21 15.7 °C 14.6 °C 1019.9 hPa Calm   3.5 km/h 93% 0.0 mm 37 W/m2
06:26 16.0 °C 14.6 °C 1019.9 hPa Calm   3.5 km/h 91% 0.0 mm 61 W/m2
06:31 16.5 °C 14.9 °C 1019.9 hPa NNW 1.1 km/h 3.5 km/h 90% 0.0 mm 70 W/m2
06:36 16.7 °C 14.7 °C 1019.9 hPa NNW 2.6 km/h 5.0 km/h 88% 0.0 mm 78 W/m2
06:41 17.2 °C 14.7 °C 1019.9 hPa NW 2.6 km/h 5.0 km/h 85% 0.0 mm 86 W/m2
06:46 17.5 °C 14.8 °C 1019.9 hPa NW 1.1 km/h 5.0 km/h 84% 0.0 mm 94 W/m2
06:51 17.8 °C 14.9 °C 1019.9 hPa NNW 2.6 km/h 6.1 km/h 83% 0.0 mm 103 W/m2
06:56 18.1 °C 15.2 °C 1019.9 hPa NNW 1.1 km/h 6.1 km/h 83% 0.0 mm 113 W/m2
07:01 18.5 °C 15.2 °C 1020.2 hPa NW 5.0 km/h 7.2 km/h 81% 0.0 mm 123 W/m2
07:06 18.8 °C 15.3 °C 1020.2 hPa NW 2.6 km/h 7.2 km/h 80% 0.0 mm 133 W/m2
07:11 19.1 °C 15.0 °C 1020.2 hPa NNW 3.5 km/h 7.2 km/h 77% 0.0 mm 144 W/m2
07:21 19.9 °C 15.3 °C 1020.2 hPa NNW 3.5 km/h 8.7 km/h 75% 0.0 mm 166 W/m2
07:26 20.2 °C 15.2 °C 1020.2 hPa NNW 7.2 km/h 11.1 km/h 73% 0.0 mm 177 W/m2
07:31 20.3 °C 15.1 °C 1020.2 hPa NNW 6.1 km/h 14.8 km/h 72% 0.0 mm 190 W/m2
07:36 20.6 °C 15.4 °C 1020.5 hPa NNW 2.6 km/h 14.8 km/h 72% 0.0 mm 201 W/m2
07:41 21.1 °C 15.2 °C 1020.5 hPa North 8.7 km/h 13.4 km/h 69% 0.0 mm 215 W/m2
07:51 21.4 °C 15.1 °C 1020.5 hPa North 5.0 km/h 15.8 km/h 67% 0.0 mm 238 W/m2
07:56 21.6 °C 15.2 °C 1020.5 hPa NNE 3.5 km/h 15.8 km/h 67% 0.0 mm 251 W/m2
08:06 21.9 °C 15.1 °C 1020.5 hPa North 3.5 km/h 14.8 km/h 65% 0.0 mm 277 W/m2
08:11 22.4 °C 15.3 °C 1020.5 hPa North 1.1 km/h 14.8 km/h 64% 0.0 mm 289 W/m2
08:16 22.9 °C 15.3 °C 1020.9 hPa North 1.1 km/h 14.8 km/h 62% 0.0 mm 306 W/m2
08:21 23.0 °C 15.3 °C 1020.9 hPa North 6.1 km/h 14.8 km/h 62% 0.0 mm 319 W/m2
08:26 23.5 °C 15.3 °C 1020.9 hPa NNE 2.6 km/h 12.2 km/h 60% 0.0 mm 336 W/m2
08:30 23.7 °C 15.5 °C 1020.9 hPa NE 6.1 km/h 12.2 km/h 60% 0.0 mm 342 W/m2
08:35 23.4 °C 14.7 °C 1020.9 hPa NNE 5.0 km/h 13.4 km/h 58% 0.0 mm 357 W/m2
08:40 23.5 °C 15.3 °C 1020.9 hPa NNE 5.0 km/h 13.4 km/h 60% 0.0 mm 372 W/m2
08:46 23.5 °C 14.8 °C 1020.9 hPa NNW 6.1 km/h 13.4 km/h 58% 0.0 mm 388 W/m2
08:51 23.6 °C 14.9 °C 1020.9 hPa NNW 8.7 km/h 13.4 km/h 58% 0.0 mm 402 W/m2
08:56 23.7 °C 15.2 °C 1020.9 hPa NNE 3.5 km/h 13.4 km/h 59% 0.0 mm 421 W/m2
09:01 24.3 °C 14.7 °C 1020.5 hPa NE 5.0 km/h 13.4 km/h 55% 0.0 mm 440 W/m2
09:11 24.8 °C 15.2 °C 1020.5 hPa Calm   12.2 km/h 55% 0.0 mm 472 W/m2
09:16 25.1 °C 15.2 °C 1020.5 hPa North 5.0 km/h 9.7 km/h 54% 0.0 mm 488 W/m2
09:21 24.5 °C 14.9 °C 1020.2 hPa NNW 5.0 km/h 11.1 km/h 55% 0.0 mm 505 W/m2
09:26 24.8 °C 14.9 °C 1020.5 hPa Calm   13.4 km/h 54% 0.0 mm 519 W/m2
09:31 25.2 °C 14.4 °C 1020.2 hPa NNE 1.1 km/h 13.4 km/h 51% 0.0 mm 543 W/m2
09:41 25.0 °C 14.2 °C 1020.2 hPa North 3.5 km/h 14.8 km/h 51% 0.0 mm 580 W/m2
09:46 25.2 °C 14.9 °C 1020.2 hPa NNW 3.5 km/h 11.1 km/h 53% 0.0 mm 597 W/m2
09:51 25.7 °C 15.4 °C 1020.2 hPa North 8.7 km/h 11.1 km/h 53% 0.0 mm 633 W/m2
09:56 25.7 °C 15.1 °C 1020.2 hPa Calm   11.1 km/h 52% 0.0 mm 652 W/m2
10:01 26.5 °C 14.3 °C 1019.9 hPa NNW 5.0 km/h 12.2 km/h 47% 0.0 mm 679 W/m2
10:06 26.3 °C 13.1 °C 1020.2 hPa NNW 8.7 km/h 15.8 km/h 44% 0.0 mm 697 W/m2
10:16 25.8 °C 13.3 °C 1019.9 hPa NNW 11.1 km/h 20.9 km/h 46% 0.0 mm 732 W/m2
10:19 25.7 °C 13.2 °C 1020.2 hPa NNW 5.0 km/h 20.9 km/h 46% 0.0 mm 738 W/m2
10:24 25.8 °C 13.3 °C 1019.9 hPa NNW 9.7 km/h 19.5 km/h 46% 0.0 mm 763 W/m2
10:29 25.6 °C 13.4 °C 1019.9 hPa NNW 12.2 km/h 19.5 km/h 47% 0.0 mm 763 W/m2
10:34 26.2 °C 13.7 °C 1019.9 hPa North 6.1 km/h 19.5 km/h 46% 0.0 mm 810 W/m2
10:40 27.1 °C 14.2 °C 1019.9 hPa NNE 11.1 km/h 17.2 km/h 45% 0.0 mm 601 W/m2
10:48 26.8 °C 13.9 °C 1019.5 hPa NNE 7.2 km/h 15.8 km/h 45% 0.0 mm 403 W/m2
10:53 26.5 °C 13.6 °C 1019.5 hPa NE 8.7 km/h 14.8 km/h 45% 0.0 mm 920 W/m2
10:58 26.9 °C 14.0 °C 1019.5 hPa NE 9.7 km/h 15.8 km/h 45% 0.0 mm 896 W/m2
11:03 26.7 °C 13.8 °C 1019.5 hPa NE 7.2 km/h 15.8 km/h 45% 0.0 mm 832 W/m2
11:08 26.8 °C 13.6 °C 1019.5 hPa NE 9.7 km/h 13.4 km/h 44% 0.0 mm 505 W/m2
11:18 26.3 °C 13.1 °C 1019.5 hPa ENE 8.7 km/h 13.4 km/h 44% 0.0 mm 348 W/m2
11:23 25.9 °C 13.7 °C 1019.5 hPa ENE 1.1 km/h 15.8 km/h 47% 0.0 mm 349 W/m2
11:28 26.4 °C 13.6 °C 1019.2 hPa NE 6.1 km/h 15.8 km/h 45% 0.0 mm 377 W/m2
11:33 25.9 °C 13.4 °C 1019.2 hPa NNE 7.2 km/h 15.8 km/h 46% 0.0 mm 333 W/m2
11:38 26.1 °C 13.6 °C 1019.2 hPa North 7.2 km/h 15.8 km/h 46% 0.0 mm 333 W/m2
11:43 26.0 °C 13.8 °C 1019.2 hPa North 7.2 km/h 13.4 km/h 47% 0.0 mm 905 W/m2
11:48 26.3 °C 13.8 °C 1018.8 hPa Calm   14.8 km/h 46% 0.0 mm 904 W/m2
11:53 27.1 °C 13.8 °C 1019.2 hPa NE 2.6 km/h 14.8 km/h 44% 0.0 mm 948 W/m2
11:58 27.3 °C 14.0 °C 1018.8 hPa North 1.1 km/h 12.2 km/h 44% 0.0 mm 998 W/m2
12:03 27.8 °C 14.1 °C 1018.8 hPa NNE 1.1 km/h 12.2 km/h 43% 0.0 mm 609 W/m2
12:08 27.1 °C 13.8 °C 1018.8 hPa NNE 3.5 km/h 14.8 km/h 44% 0.0 mm 418 W/m2
12:13 26.8 °C 14.2 °C 1018.8 hPa NNE 6.1 km/h 14.8 km/h 46% 0.0 mm 367 W/m2
12:28 27.8 °C 14.4 °C 1018.5 hPa NE 5.0 km/h 17.2 km/h 44% 0.0 mm 889 W/m2
12:33 28.0 °C 15.3 °C 1018.5 hPa NNE 8.7 km/h 17.2 km/h 46% 0.0 mm 930 W/m2
12:53 26.9 °C 15.6 °C 1018.5 hPa Calm   17.2 km/h 50% 0.0 mm 1027 W/m2
13:08 27.0 °C 15.4 °C 1018.2 hPa Calm   5.0 km/h 49% 0.0 mm 344 W/m2
13:13 27.0 °C 15.4 °C 1018.2 hPa Calm   5.0 km/h 49% 0.0 mm 363 W/m2
13:28 27.2 °C 13.6 °C 1018.2 hPa North 6.1 km/h 20.9 km/h 43% 0.0 mm 389 W/m2
13:33 27.4 °C 13.4 °C 1018.2 hPa NNW 12.2 km/h 24.5 km/h 42% 0.0 mm 421 W/m2
13:38 27.5 °C 13.8 °C 1018.2 hPa NNW 3.5 km/h 24.5 km/h 43% 0.0 mm 487 W/m2
13:48 27.8 °C 13.7 °C 1018.2 hPa North 12.2 km/h 23.3 km/h 42% 0.0 mm 397 W/m2
14:03 27.5 °C 13.8 °C 1018.2 hPa NNW 13.4 km/h 23.3 km/h 43% 0.0 mm 430 W/m2
14:08 27.6 °C 13.9 °C 1018.2 hPa NNW 12.2 km/h 23.3 km/h 43% 0.0 mm 522 W/m2
14:18 28.2 °C 14.4 °C 1018.2 hPa North 17.2 km/h 30.6 km/h 43% 0.0 mm 271 W/m2
14:29 28.1 °C 15.8 °C 1017.8 hPa North 1.1 km/h 21.9 km/h 47% 0.0 mm 880 W/m2
14:34 28.5 °C 16.1 °C 1017.8 hPa North 11.1 km/h 18.3 km/h 47% 0.0 mm 814 W/m2
14:44 28.8 °C 14.6 °C 1017.8 hPa North 17.2 km/h 28.0 km/h 42% 0.0 mm 778 W/m2
14:54 28.5 °C 14.0 °C 1017.8 hPa North 15.8 km/h 28.0 km/h 41% 0.0 mm 749 W/m2
15:09 28.9 °C 14.7 °C 1017.8 hPa NNW 9.7 km/h 28.0 km/h 42% 0.0 mm 782 W/m2
15:19 28.5 °C 14.4 °C 1017.5 hPa North 17.2 km/h 27.0 km/h 42% 0.0 mm 699 W/m2
15:24 28.6 °C 14.4 °C 1017.5 hPa North 13.4 km/h 27.0 km/h 42% 0.0 mm 687 W/m2
15:29 28.5 °C 14.7 °C 1017.5 hPa North 8.7 km/h 25.6 km/h 43% 0.0 mm 670 W/m2
15:30 28.5 °C 14.7 °C 1017.5 hPa North 13.4 km/h 29.4 km/h 43% 0.0 mm 458 W/m2
15:35 28.4 °C 15.0 °C 1017.2 hPa NNW 19.5 km/h 29.4 km/h 44% 0.0 mm 670 W/m2
15:40 28.3 °C 14.6 °C 1017.5 hPa NNW 19.5 km/h 29.4 km/h 43% 0.0 mm 643 W/m2
15:46 28.2 °C 14.4 °C 1017.2 hPa NNW 8.7 km/h 27.0 km/h 43% 0.0 mm 634 W/m2
15:51 28.3 °C 14.9 °C 1017.5 hPa NNW 21.9 km/h 33.1 km/h 44% 0.0 mm 620 W/m2
15:52 28.3 °C 14.9 °C 1017.2 hPa NNW 19.5 km/h 33.1 km/h 44% 0.0 mm 619 W/m2
15:57 28.2 °C 14.8 °C 1017.5 hPa NNW 15.8 km/h 33.1 km/h 44% 0.0 mm 609 W/m2
16:02 28.5 °C 15.1 °C 1017.5 hPa NNW 20.9 km/h 29.4 km/h 44% 0.0 mm 606 W/m2
16:07 28.3 °C 14.2 °C 1017.2 hPa NNW 11.1 km/h 29.4 km/h 42% 0.0 mm 617 W/m2
16:17 28.9 °C 13.9 °C 1017.2 hPa NW 15.8 km/h 30.6 km/h 40% 0.0 mm 646 W/m2
16:22 28.7 °C 14.2 °C 1017.2 hPa NW 13.4 km/h 30.6 km/h 41% 0.0 mm 621 W/m2
16:25 28.7 °C 13.0 °C 1017.2 hPa NW 13.4 km/h 31.7 km/h 38% 0.0 mm 300 W/m2
16:31 28.7 °C 13.4 °C 1017.2 hPa NNW 14.8 km/h 31.7 km/h 39% 0.0 mm 538 W/m2
16:34 28.6 °C 13.7 °C 1016.8 hPa NNW 9.7 km/h 31.7 km/h 40% 0.0 mm 534 W/m2
16:39 28.7 °C 13.0 °C 1017.2 hPa NNW 18.3 km/h 29.4 km/h 38% 0.0 mm 538 W/m2
16:49 28.5 °C 13.6 °C 1017.2 hPa North 11.1 km/h 29.4 km/h 40% 0.0 mm 559 W/m2
16:54 28.5 °C 14.4 °C 1017.2 hPa NNW 14.8 km/h 24.5 km/h 42% 0.0 mm 547 W/m2
16:59 28.7 °C 15.6 °C 1016.8 hPa North 11.1 km/h 21.9 km/h 45% 0.0 mm 324 W/m2
17:04 28.3 °C 15.3 °C 1017.2 hPa North 12.2 km/h 23.3 km/h 45% 0.0 mm 396 W/m2
17:09 28.3 °C 15.3 °C 1016.8 hPa North 15.8 km/h 27.0 km/h 45% 0.0 mm 439 W/m2
17:23 27.0 °C 14.1 °C 1016.8 hPa North 13.4 km/h 23.3 km/h 45% 0.0 mm 120 W/m2
17:28 26.8 °C 14.2 °C 1016.8 hPa North 6.1 km/h 21.9 km/h 46% 0.0 mm 210 W/m2
17:38 27.7 °C 14.0 °C 1016.5 hPa North 9.7 km/h 23.3 km/h 43% 0.0 mm 392 W/m2
17:43 28.4 °C 15.0 °C 1016.5 hPa North 14.8 km/h 20.9 km/h 44% 0.0 mm 366 W/m2
17:48 28.4 °C 15.3 °C 1016.1 hPa North 5.0 km/h 20.9 km/h 45% 0.0 mm 357 W/m2
17:53 28.6 °C 14.8 °C 1016.1 hPa North 7.2 km/h 19.5 km/h 43% 0.0 mm 341 W/m2
17:58 28.9 °C 15.4 °C 1016.5 hPa NNE 5.0 km/h 18.3 km/h 44% 0.0 mm 318 W/m2
18:03 29.0 °C 14.8 °C 1016.5 hPa North 6.1 km/h 15.8 km/h 42% 0.0 mm 300 W/m2
18:08 28.7 °C 14.9 °C 1016.1 hPa North 12.2 km/h 19.5 km/h 43% 0.0 mm 283 W/m2
18:18 27.8 °C 13.7 °C 1016.1 hPa NNW 14.8 km/h 23.3 km/h 42% 0.0 mm 256 W/m2
18:23 27.9 °C 13.8 °C 1016.1 hPa NNW 7.2 km/h 21.9 km/h 42% 0.0 mm 248 W/m2
18:28 28.2 °C 15.2 °C 1016.5 hPa North 8.7 km/h 20.9 km/h 45% 0.0 mm 237 W/m2
18:33 27.7 °C 13.7 °C 1016.5 hPa NNE 8.7 km/h 21.9 km/h 42% 0.0 mm 224 W/m2
18:38 27.8 °C 14.1 °C 1016.5 hPa North 7.2 km/h 21.9 km/h 43% 0.0 mm 213 W/m2
18:43 27.7 °C 14.0 °C 1016.5 hPa NNE 9.7 km/h 19.5 km/h 43% 0.0 mm 201 W/m2
18:55 27.2 °C 13.9 °C 1016.5 hPa NNE 7.2 km/h 25.6 km/h 44% 0.0 mm 176 W/m2
19:00 27.1 °C 13.8 °C 1016.8 hPa North 8.7 km/h 23.3 km/h 44% 0.0 mm 176 W/m2
19:05 26.9 °C 14.0 °C 1016.8 hPa North 11.1 km/h 19.5 km/h 45% 0.0 mm 165 W/m2
19:15 26.6 °C 14.1 °C 1016.8 hPa NNW 11.1 km/h 19.5 km/h 46% 0.0 mm 140 W/m2
19:20 26.3 °C 14.1 °C 1016.8 hPa North 5.0 km/h 20.9 km/h 47% 0.0 mm 123 W/m2
19:31 25.5 °C 14.0 °C 1016.8 hPa North 12.2 km/h 27.0 km/h 49% 0.0 mm 91 W/m2
19:36 25.4 °C 14.2 °C 1016.8 hPa North 5.0 km/h 21.9 km/h 50% 0.0 mm 70 W/m2
19:42 25.2 °C 14.4 °C 1016.8 hPa NNW 7.2 km/h 21.9 km/h 51% 0.0 mm 60 W/m2
19:47 24.7 °C 14.5 °C 1016.8 hPa NNW 9.7 km/h 25.6 km/h 53% 0.0 mm 50 W/m2
19:52 24.7 °C 14.5 °C 1017.2 hPa NNW 5.0 km/h 25.6 km/h 53% 0.0 mm 53 W/m2
19:57 24.7 °C 14.8 °C 1017.2 hPa NNW 3.5 km/h 19.5 km/h 54% 0.0 mm 25 W/m2
20:02 24.4 °C 14.5 °C 1017.2 hPa NNW 8.7 km/h 18.3 km/h 54% 0.0 mm 32 W/m2
20:07 24.2 °C 14.3 °C 1017.2 hPa NNW 5.0 km/h 20.9 km/h 54% 0.0 mm 19 W/m2
20:23 23.3 °C 14.3 °C 1017.2 hPa NNE 6.1 km/h 25.6 km/h 57% 0.0 mm 4 W/m2
20:28 23.1 °C 14.4 °C 1017.2 hPa North 5.0 km/h 25.6 km/h 58% 0.0 mm 1 W/m2
20:33 23.0 °C 14.3 °C 1017.5 hPa NNW 6.1 km/h 17.2 km/h 58% 0.0 mm 0 W/m2
20:38 22.8 °C 14.4 °C 1017.5 hPa NNW 6.1 km/h 17.2 km/h 59% 0.0 mm 0 W/m2
20:48 22.4 °C 14.5 °C 1017.5 hPa NNE 6.1 km/h 17.2 km/h 61% 0.0 mm 0 W/m2
20:53 22.3 °C 14.4 °C 1017.5 hPa North 7.2 km/h 18.3 km/h 61% 0.0 mm 0 W/m2
20:58 22.1 °C 14.2 °C 1017.5 hPa North 3.5 km/h 18.3 km/h 61% 0.0 mm 0 W/m2
21:03 22.0 °C 14.2 °C 1017.5 hPa North 6.1 km/h 14.8 km/h 61% 0.0 mm 0 W/m2
21:08 21.9 °C 14.6 °C 1017.5 hPa North 1.1 km/h 13.4 km/h 63% 0.0 mm 0 W/m2
21:13 21.9 °C 14.6 °C 1017.8 hPa North 5.0 km/h 17.2 km/h 63% 0.0 mm 0 W/m2
21:18 21.8 °C 14.4 °C 1017.8 hPa NNE 2.6 km/h 17.2 km/h 63% 0.0 mm 0 W/m2
21:23 21.8 °C 14.4 °C 1017.8 hPa North 5.0 km/h 17.2 km/h 63% 0.0 mm 0 W/m2
21:28 21.7 °C 14.4 °C 1017.8 hPa Calm   14.8 km/h 63% 0.0 mm 0 W/m2
21:38 21.6 °C 14.3 °C 1017.8 hPa North 7.2 km/h 17.2 km/h 63% 0.0 mm 0 W/m2
21:43 21.6 °C 14.5 °C 1018.2 hPa North 8.7 km/h 15.8 km/h 64% 0.0 mm 0 W/m2
21:49 21.5 °C 14.4 °C 1017.8 hPa North 9.7 km/h 23.3 km/h 64% 0.0 mm 0 W/m2
21:54 21.5 °C 14.4 °C 1018.2 hPa North 9.7 km/h 23.3 km/h 64% 0.0 mm 0 W/m2
21:59 21.4 °C 14.3 °C 1017.8 hPa North 11.1 km/h 20.9 km/h 64% 0.0 mm 0 W/m2
22:04 21.3 °C 14.4 °C 1017.8 hPa North 6.1 km/h 20.9 km/h 65% 0.0 mm 0 W/m2
22:09 21.3 °C 14.4 °C 1018.2 hPa NNW 5.0 km/h 20.9 km/h 65% 0.0 mm 0 W/m2
22:19 21.3 °C 14.4 °C 1017.8 hPa North 6.1 km/h 33.1 km/h 65% 0.0 mm 0 W/m2
22:24 21.3 °C 14.4 °C 1017.5 hPa North 3.5 km/h 33.1 km/h 65% 0.0 mm 0 W/m2
22:39 21.1 °C 14.3 °C 1018.2 hPa North 9.7 km/h 25.6 km/h 65% 0.0 mm 0 W/m2
22:44 21.1 °C 14.3 °C 1018.2 hPa North 12.2 km/h 25.6 km/h 65% 0.0 mm 0 W/m2
22:49 21.0 °C 14.2 °C 1018.2 hPa North 13.4 km/h 27.0 km/h 65% 0.0 mm 0 W/m2
22:54 21.0 °C 14.2 °C 1018.2 hPa North 12.2 km/h 27.0 km/h 65% 0.0 mm 0 W/m2
23:04 20.7 °C 14.1 °C 1018.2 hPa North 8.7 km/h 23.3 km/h 66% 0.0 mm 0 W/m2
23:09 20.7 °C 14.1 °C 1018.2 hPa NNE 5.0 km/h 20.9 km/h 66% 0.0 mm 0 W/m2
23:14 20.7 °C 13.9 °C 1018.2 hPa NNE 8.7 km/h 27.0 km/h 65% 0.0 mm 0 W/m2
23:19 20.7 °C 13.9 °C 1018.2 hPa NNW 7.2 km/h 27.0 km/h 65% 0.0 mm 0 W/m2
23:24 20.7 °C 13.9 °C 1018.2 hPa NNW 3.5 km/h 27.0 km/h 65% 0.0 mm 0 W/m2
23:29 20.7 °C 13.9 °C 1018.5 hPa North 7.2 km/h 23.3 km/h 65% 0.0 mm 0 W/m2
23:34 20.7 °C 13.9 °C 1018.2 hPa North 5.0 km/h 23.3 km/h 65% 0.0 mm 0 W/m2
23:49 20.5 °C 13.9 °C 1018.2 hPa NNW 9.7 km/h 20.9 km/h 66% 0.0 mm 0 W/m2
23:59 20.4 °C 13.6 °C 1017.8 hPa NNW 8.7 km/h 23.3 km/h 65% 0.0 mm 0 W/m2
Northern Hawkes Bay. New Zealand Historic Data
Compliments of Weather Underground - 2 mb